sensor_id;sensor_type;location;lat;lon;timestamp;pressure;altitude;pressure_sealevel;temperature;humidity
43161;BME280;40968;52.342;5.528;2024-01-15T00:00:11;100233.00;;;0.61;91.19
43161;BME280;40968;52.342;5.528;2024-01-15T00:02:38;100070.56;;;-0.46;90.75
43161;BME280;40968;52.342;5.528;2024-01-15T00:05:04;100281.75;;;0.94;91.12
43161;BME280;40968;52.342;5.528;2024-01-15T00:07:32;100174.47;;;0.32;90.77
43161;BME280;40968;52.342;5.528;2024-01-15T00:09:59;100265.19;;;0.90;90.76
43161;BME280;40968;52.342;5.528;2024-01-15T00:12:25;100174.59;;;0.29;90.53
43161;BME280;40968;52.342;5.528;2024-01-15T00:14:52;100223.00;;;0.70;90.37
43161;BME280;40968;52.342;5.528;2024-01-15T00:17:19;100251.22;;;0.88;90.10
43161;BME280;40968;52.342;5.528;2024-01-15T00:19:46;99951.22;;;-0.88;89.71
43161;BME280;40968;52.342;5.528;2024-01-15T00:22:12;99980.38;;;-0.72;89.84
43161;BME280;40968;52.342;5.528;2024-01-15T00:24:40;100233.03;;;0.82;89.66
43161;BME280;40968;52.342;5.528;2024-01-15T00:27:07;100203.88;;;0.64;89.74
43161;BME280;40968;52.342;5.528;2024-01-15T00:29:33;99973.47;;;-0.74;89.28
43161;BME280;40968;52.342;5.528;2024-01-15T00:32:00;99933.13;;;-0.95;89.29
43161;BME280;40968;52.342;5.528;2024-01-15T00:34:26;100232.63;;;0.91;89.17
43161;BME280;40968;52.342;5.528;2024-01-15T00:36:53;100049.78;;;-0.31;88.92
43161;BME280;40968;52.342;5.528;2024-01-15T00:39:20;99930.28;;;-0.91;88.46
43161;BME280;40968;52.342;5.528;2024-01-15T00:41:48;100052.47;;;-0.33;88.42
43161;BME280;40968;52.342;5.528;2024-01-15T00:44:14;99972.34;;;-0.69;87.93
43161;BME280;40968;52.342;5.528;2024-01-15T00:46:43;100229.97;;;0.91;87.68
43161;BME280;40968;52.342;5.528;2024-01-15T00:49:10;99951.50;;;-0.73;87.38
43161;BME280;40968;52.342;5.528;2024-01-15T00:51:38;100246.47;;;0.96;87.55
43161;BME280;40968;52.342;5.528;2024-01-15T00:54:05;99979.63;;;-0.53;87.48
43161;BME280;40968;52.342;5.528;2024-01-15T00:56:31;100233.28;;;0.96;87.62
43161;BME280;40968;52.342;5.528;2024-01-15T00:59:00;100140.44;;;0.47;87.49
43161;BME280;40968;52.342;5.528;2024-01-15T01:01:26;100092.81;;;0.10;87.67
43161;BME280;40968;52.342;5.528;2024-01-15T01:03:53;100231.47;;;0.97;87.88
43161;BME280;40968;52.342;5.528;2024-01-15T01:06:19;100166.16;;;0.62;88.54
43161;BME280;40968;52.342;5.528;2024-01-15T01:08:46;100182.25;;;0.77;88.57
43161;BME280;40968;52.342;5.528;2024-01-15T01:11:13;100213.72;;;1.01;88.95
43161;BME280;40968;52.342;5.528;2024-01-15T01:13:39;99992.91;;;-0.36;88.84
43161;BME280;40968;52.342;5.528;2024-01-15T01:16:07;99961.13;;;-0.52;89.18
43161;BME280;40968;52.342;5.528;2024-01-15T01:18:34;100210.31;;;0.98;89.40
43161;BME280;40968;52.342;5.528;2024-01-15T01:21:01;100200.69;;;0.97;89.26
43161;BME280;40968;52.342;5.528;2024-01-15T01:23:28;100146.78;;;0.63;89.28
43161;BME280;40968;52.342;5.528;2024-01-15T01:25:54;100201.59;;;0.96;89.29
43161;BME280;40968;52.342;5.528;2024-01-15T01:28:21;100200.75;;;0.96;89.69
43161;BME280;40968;52.342;5.528;2024-01-15T01:30:47;100203.47;;;0.94;89.50
43161;BME280;40968;52.342;5.528;2024-01-15T01:33:15;100037.09;;;-0.01;89.31
43161;BME280;40968;52.342;5.528;2024-01-15T01:35:42;100199.13;;;0.93;89.45
43161;BME280;40968;52.342;5.528;2024-01-15T01:38:08;100016.69;;;-0.17;89.53
43161;BME280;40968;52.342;5.528;2024-01-15T01:40:35;100131.22;;;0.57;89.51
43161;BME280;40968;52.342;5.528;2024-01-15T01:43:02;100063.78;;;0.12;89.71
43161;BME280;40968;52.342;5.528;2024-01-15T01:45:29;100104.94;;;0.35;89.87
43161;BME280;40968;52.342;5.528;2024-01-15T01:47:56;100187.91;;;0.88;90.23
43161;BME280;40968;52.342;5.528;2024-01-15T01:50:24;100046.50;;;0.05;90.22
43161;BME280;40968;52.342;5.528;2024-01-15T01:52:50;99986.19;;;-0.43;90.19
43161;BME280;40968;52.342;5.528;2024-01-15T01:55:18;100150.19;;;0.65;90.45
43161;BME280;40968;52.342;5.528;2024-01-15T01:57:45;100110.94;;;0.39;90.45
43161;BME280;40968;52.342;5.528;2024-01-15T02:00:13;100041.50;;;-0.02;90.15
43161;BME280;40968;52.342;5.528;2024-01-15T02:02:40;100036.78;;;-0.14;90.05
43161;BME280;40968;52.342;5.528;2024-01-15T02:05:07;100137.41;;;0.56;90.12
43161;BME280;40968;52.342;5.528;2024-01-15T02:07:36;99969.88;;;-0.51;90.27
43161;BME280;40968;52.342;5.528;2024-01-15T02:10:03;100122.06;;;0.45;90.43
43161;BME280;40968;52.342;5.528;2024-01-15T02:12:31;100184.47;;;0.86;90.06
43161;BME280;40968;52.342;5.528;2024-01-15T02:14:58;100096.38;;;0.30;90.18
43161;BME280;40968;52.342;5.528;2024-01-15T02:17:25;100148.44;;;0.66;90.54
43161;BME280;40968;52.342;5.528;2024-01-15T02:19:51;100166.00;;;0.65;90.85
43161;BME280;40968;52.342;5.528;2024-01-15T02:22:18;100146.78;;;0.63;91.09
43161;BME280;40968;52.342;5.528;2024-01-15T02:24:46;100199.03;;;0.95;91.08
43161;BME280;40968;52.342;5.528;2024-01-15T02:27:12;100193.69;;;0.96;91.57
43161;BME280;40968;52.342;5.528;2024-01-15T02:29:40;100164.56;;;0.79;91.93
43161;BME280;40968;52.342;5.528;2024-01-15T02:32:08;100083.16;;;0.31;91.90
43161;BME280;40968;52.342;5.528;2024-01-15T02:34:35;99924.06;;;-0.68;91.89
43161;BME280;40968;52.342;5.528;2024-01-15T02:37:01;100006.34;;;-0.21;91.78
43161;BME280;40968;52.342;5.528;2024-01-15T02:39:28;100195.69;;;0.91;92.25
43161;BME280;40968;52.342;5.528;2024-01-15T02:41:56;99984.34;;;-0.41;91.97
43161;BME280;40968;52.342;5.528;2024-01-15T02:44:23;100096.59;;;0.25;92.28
43161;BME280;40968;52.342;5.528;2024-01-15T02:46:49;100037.03;;;-0.20;92.44
43161;BME280;40968;52.342;5.528;2024-01-15T02:49:16;100190.81;;;0.82;92.42
43161;BME280;40968;52.342;5.528;2024-01-15T02:51:42;99968.28;;;-0.55;92.35
43161;BME280;40968;52.342;5.528;2024-01-15T02:54:09;100094.72;;;0.27;92.53
43161;BME280;40968;52.342;5.528;2024-01-15T02:56:36;100101.59;;;0.31;92.90
43161;BME280;40968;52.342;5.528;2024-01-15T02:59:03;99964.63;;;-0.51;92.81
43161;BME280;40968;52.342;5.528;2024-01-15T03:01:30;100145.47;;;0.53;92.90
43161;BME280;40968;52.342;5.528;2024-01-15T03:03:57;100025.44;;;-0.16;92.60
43161;BME280;40968;52.342;5.528;2024-01-15T03:06:23;100215.78;;;0.94;92.69
43161;BME280;40968;52.342;5.528;2024-01-15T03:08:50;100181.31;;;0.78;92.42
43161;BME280;40968;52.342;5.528;2024-01-15T03:11:16;100203.47;;;0.94;92.28
43161;BME280;40968;52.342;5.528;2024-01-15T03:13:43;100206.03;;;0.96;91.83
43161;BME280;40968;52.342;5.528;2024-01-15T03:16:11;99977.38;;;-0.42;91.32
43161;BME280;40968;52.342;5.528;2024-01-15T03:18:37;100140.19;;;0.53;91.18
43161;BME280;40968;52.342;5.528;2024-01-15T03:21:04;100135.72;;;0.35;90.90
43161;BME280;40968;52.342;5.528;2024-01-15T03:23:31;100202.41;;;0.78;90.83
43161;BME280;40968;52.342;5.528;2024-01-15T03:25:57;100205.22;;;0.75;90.62
43161;BME280;40968;52.342;5.528;2024-01-15T03:28:24;100158.84;;;0.48;91.04
43161;BME280;40968;52.342;5.528;2024-01-15T03:30:51;100094.19;;;-0.02;91.08
43161;BME280;40968;52.342;5.528;2024-01-15T03:33:19;100203.59;;;0.71;91.52
43161;BME280;40968;52.342;5.528;2024-01-15T03:35:45;100125.31;;;0.31;91.99
43161;BME280;40968;52.342;5.528;2024-01-15T03:38:11;100030.19;;;-0.24;92.38
43161;BME280;40968;52.342;5.528;2024-01-15T03:40:37;100175.00;;;0.61;92.75
43161;BME280;40968;52.342;5.528;2024-01-15T03:43:04;99904.50;;;-1.03;92.45
43161;BME280;40968;52.342;5.528;2024-01-15T03:45:30;100000.94;;;-0.39;92.75
43161;BME280;40968;52.342;5.528;2024-01-15T03:47:57;100164.06;;;0.50;93.00
43161;BME280;40968;52.342;5.528;2024-01-15T03:50:25;99991.06;;;-0.54;92.73
43161;BME280;40968;52.342;5.528;2024-01-15T03:52:51;100088.81;;;0.02;92.85
43161;BME280;40968;52.342;5.528;2024-01-15T03:55:18;100077.72;;;-0.07;93.00
43161;BME280;40968;52.342;5.528;2024-01-15T03:57:44;100101.19;;;0.20;93.15
43161;BME280;40968;52.342;5.528;2024-01-15T04:00:12;100162.53;;;0.44;93.50
43161;BME280;40968;52.342;5.528;2024-01-15T04:02:39;100148.59;;;0.42;93.24
43161;BME280;40968;52.342;5.528;2024-01-15T04:05:06;99985.78;;;-0.54;93.31
43161;BME280;40968;52.342;5.528;2024-01-15T04:07:34;99897.59;;;-1.06;93.59
43161;BME280;40968;52.342;5.528;2024-01-15T04:10:00;100153.13;;;0.39;93.68
43161;BME280;40968;52.342;5.528;2024-01-15T04:12:27;100147.00;;;0.38;93.93
43161;BME280;40968;52.342;5.528;2024-01-15T04:14:53;100053.75;;;-0.21;94.21
43161;BME280;40968;52.342;5.528;2024-01-15T04:17:20;100153.97;;;0.39;94.25
43161;BME280;40968;52.342;5.528;2024-01-15T04:19:47;100020.97;;;-0.35;94.42
43161;BME280;40968;52.342;5.528;2024-01-15T04:22:14;100106.59;;;0.17;94.63
43161;BME280;40968;52.342;5.528;2024-01-15T04:24:42;100080.50;;;0.11;94.84
43161;BME280;40968;52.342;5.528;2024-01-15T04:27:08;99923.72;;;-0.80;94.87
43161;BME280;40968;52.342;5.528;2024-01-15T04:29:37;100069.00;;;0.13;95.18
43161;BME280;40968;52.342;5.528;2024-01-15T04:32:04;100068.19;;;0.11;94.88
43161;BME280;40968;52.342;5.528;2024-01-15T04:34:31;100080.13;;;0.20;95.41
43161;BME280;40968;52.342;5.528;2024-01-15T04:36:57;99919.19;;;-0.77;95.06
43161;BME280;40968;52.342;5.528;2024-01-15T04:39:24;99982.75;;;-0.45;95.57
43161;BME280;40968;52.342;5.528;2024-01-15T04:41:52;100121.22;;;0.45;95.41
43161;BME280;40968;52.342;5.528;2024-01-15T04:44:18;100130.06;;;0.44;95.76
43161;BME280;40968;52.342;5.528;2024-01-15T04:46:45;100111.66;;;0.42;95.38
43161;BME280;40968;52.342;5.528;2024-01-15T04:49:12;99911.63;;;-0.85;95.54
43161;BME280;40968;52.342;5.528;2024-01-15T04:51:38;99902.25;;;-0.92;95.56
43161;BME280;40968;52.342;5.528;2024-01-15T04:54:05;99953.00;;;-0.68;95.71
43161;BME280;40968;52.342;5.528;2024-01-15T04:56:31;100049.41;;;-0.02;95.88
43161;BME280;40968;52.342;5.528;2024-01-15T04:58:59;100099.94;;;0.29;96.20
43161;BME280;40968;52.342;5.528;2024-01-15T05:01:30;99954.59;;;-0.63;95.99
43161;BME280;40968;52.342;5.528;2024-01-15T05:03:57;100099.06;;;0.28;96.44
43161;BME280;40968;52.342;5.528;2024-01-15T05:06:23;100063.91;;;0.09;96.54
43161;BME280;40968;52.342;5.528;2024-01-15T05:08:50;100103.44;;;0.29;96.67
43161;BME280;40968;52.342;5.528;2024-01-15T05:11:17;100037.84;;;-0.18;97.00
43161;BME280;40968;52.342;5.528;2024-01-15T05:13:43;100120.16;;;0.28;97.26
43161;BME280;40968;52.342;5.528;2024-01-15T05:16:11;100092.38;;;0.01;97.45
43161;BME280;40968;52.342;5.528;2024-01-15T05:18:37;100137.88;;;0.25;97.23
43161;BME280;40968;52.342;5.528;2024-01-15T05:21:04;100100.28;;;0.01;97.42
43161;BME280;40968;52.342;5.528;2024-01-15T05:23:31;100122.41;;;0.17;97.50
43161;BME280;40968;52.342;5.528;2024-01-15T05:25:58;100125.97;;;0.16;97.50
43161;BME280;40968;52.342;5.528;2024-01-15T05:28:24;100130.38;;;0.15;98.08
43161;BME280;40968;52.342;5.528;2024-01-15T05:30:51;100126.03;;;0.14;98.15
43161;BME280;40968;52.342;5.528;2024-01-15T05:33:19;100060.41;;;-0.12;98.38
43161;BME280;40968;52.342;5.528;2024-01-15T05:35:45;100008.97;;;-0.42;98.49
43161;BME280;40968;52.342;5.528;2024-01-15T05:38:12;100097.91;;;0.15;98.55
43161;BME280;40968;52.342;5.528;2024-01-15T05:40:39;100098.81;;;0.14;98.87
43161;BME280;40968;52.342;5.528;2024-01-15T05:43:05;100064.69;;;-0.10;99.26
43161;BME280;40968;52.342;5.528;2024-01-15T05:45:34;99793.78;;;-1.83;98.71
43161;BME280;40968;52.342;5.528;2024-01-15T05:48:01;100118.19;;;0.13;99.15
43161;BME280;40968;52.342;5.528;2024-01-15T05:50:29;100133.88;;;0.16;99.65
43161;BME280;40968;52.342;5.528;2024-01-15T05:52:56;99913.06;;;-1.20;99.05
43161;BME280;40968;52.342;5.528;2024-01-15T05:55:22;100124.25;;;0.15;99.85
43161;BME280;40968;52.342;5.528;2024-01-15T05:57:49;100072.50;;;-0.29;99.94
43161;BME280;40968;52.342;5.528;2024-01-15T06:00:16;100095.50;;;-0.12;99.99
43161;BME280;40968;52.342;5.528;2024-01-15T06:02:42;99919.38;;;-1.24;99.60
43161;BME280;40968;52.342;5.528;2024-01-15T06:05:09;100126.47;;;0.04;99.66
43161;BME280;40968;52.342;5.528;2024-01-15T06:07:37;99955.22;;;-0.99;99.74
43161;BME280;40968;52.342;5.528;2024-01-15T06:10:04;99867.78;;;-1.49;99.76
43161;BME280;40968;52.342;5.528;2024-01-15T06:12:31;99840.28;;;-1.62;99.77
43161;BME280;40968;52.342;5.528;2024-01-15T06:14:59;99758.94;;;-2.10;99.64
43161;BME280;40968;52.342;5.528;2024-01-15T06:17:25;100052.13;;;-0.46;100.00
43161;BME280;40968;52.342;5.528;2024-01-15T06:19:52;99863.72;;;-1.36;100.00
43161;BME280;40968;52.342;5.528;2024-01-15T06:22:18;99864.09;;;-1.45;100.00
43161;BME280;40968;52.342;5.528;2024-01-15T06:24:46;99585.75;;;-3.22;100.00
43161;BME280;40968;52.342;5.528;2024-01-15T06:27:13;99861.28;;;-1.40;100.00
43161;BME280;40968;52.342;5.528;2024-01-15T06:29:44;100089.97;;;-0.06;100.00
43161;BME280;40968;52.342;5.528;2024-01-15T06:32:11;100013.91;;;-0.55;100.00
43161;BME280;40968;52.342;5.528;2024-01-15T06:34:38;100049.59;;;-0.27;100.00
43161;BME280;40968;52.342;5.528;2024-01-15T06:37:05;100042.69;;;-0.29;100.00
43161;BME280;40968;52.342;5.528;2024-01-15T06:39:31;100005.34;;;-0.60;100.00
43161;BME280;40968;52.342;5.528;2024-01-15T06:41:59;99866.91;;;-1.50;100.00
43161;BME280;40968;52.342;5.528;2024-01-15T06:44:26;100091.69;;;-0.05;100.00
43161;BME280;40968;52.342;5.528;2024-01-15T06:46:52;99838.94;;;-1.51;100.00
43161;BME280;40968;52.342;5.528;2024-01-15T06:49:22;99822.97;;;-1.68;100.00
43161;BME280;40968;52.342;5.528;2024-01-15T06:51:49;100032.09;;;-0.48;100.00
43161;BME280;40968;52.342;5.528;2024-01-15T06:54:15;99905.59;;;-1.09;100.00
43161;BME280;40968;52.342;5.528;2024-01-15T06:56:42;99759.69;;;-2.06;100.00
43161;BME280;40968;52.342;5.528;2024-01-15T06:59:10;99940.19;;;-0.97;100.00
43161;BME280;40968;52.342;5.528;2024-01-15T07:01:36;99793.59;;;-1.78;100.00
43161;BME280;40968;52.342;5.528;2024-01-15T07:04:03;100082.59;;;0.03;100.00
43161;BME280;40968;52.342;5.528;2024-01-15T07:06:29;100099.28;;;0.03;100.00
43161;BME280;40968;52.342;5.528;2024-01-15T07:08:56;100071.03;;;-0.14;100.00
43161;BME280;40968;52.342;5.528;2024-01-15T07:11:23;100100.13;;;0.04;100.00
43161;BME280;40968;52.342;5.528;2024-01-15T07:13:50;99990.53;;;-0.62;100.00
43161;BME280;40968;52.342;5.528;2024-01-15T07:16:18;99771.00;;;-1.82;100.00
43161;BME280;40968;52.342;5.528;2024-01-15T07:18:44;100088.66;;;0.05;100.00
43161;BME280;40968;52.342;5.528;2024-01-15T07:21:11;100005.69;;;-0.47;100.00
43161;BME280;40968;52.342;5.528;2024-01-15T07:23:37;99828.53;;;-1.54;100.00
43161;BME280;40968;52.342;5.528;2024-01-15T07:26:04;100081.63;;;0.05;100.00
43161;BME280;40968;52.342;5.528;2024-01-15T07:28:31;99865.31;;;-1.31;100.00
43161;BME280;40968;52.342;5.528;2024-01-15T07:30:58;100088.66;;;0.05;100.00
43161;BME280;40968;52.342;5.528;2024-01-15T07:33:25;100095.75;;;0.04;100.00
43161;BME280;40968;52.342;5.528;2024-01-15T07:35:52;100079.69;;;-0.12;100.00
43161;BME280;40968;52.342;5.528;2024-01-15T07:38:19;100114.09;;;0.06;100.00
43161;BME280;40968;52.342;5.528;2024-01-15T07:40:45;100054.81;;;-0.25;100.00
43161;BME280;40968;52.342;5.528;2024-01-15T07:43:14;100107.13;;;0.05;100.00
43161;BME280;40968;52.342;5.528;2024-01-15T07:45:41;100107.13;;;0.05;100.00
43161;BME280;40968;52.342;5.528;2024-01-15T07:48:07;100022.91;;;-0.40;99.87
43161;BME280;40968;52.342;5.528;2024-01-15T07:50:36;99946.00;;;-0.89;99.85
43161;BME280;40968;52.342;5.528;2024-01-15T07:53:02;99903.03;;;-1.10;99.52
43161;BME280;40968;52.342;5.528;2024-01-15T07:55:30;99979.75;;;-0.56;99.63
43161;BME280;40968;52.342;5.528;2024-01-15T07:57:57;99944.91;;;-0.84;99.30
43161;BME280;40968;52.342;5.528;2024-01-15T08:00:24;100076.56;;;0.01;99.76
43161;BME280;40968;52.342;5.528;2024-01-15T08:02:51;100071.44;;;-0.03;99.22
43161;BME280;40968;52.342;5.528;2024-01-15T08:05:18;100062.44;;;-0.19;99.49
43161;BME280;40968;52.342;5.528;2024-01-15T08:07:47;99836.47;;;-1.55;99.55
43161;BME280;40968;52.342;5.528;2024-01-15T08:10:14;99960.81;;;-0.87;99.33
43161;BME280;40968;52.342;5.528;2024-01-15T08:12:40;100063.50;;;-0.23;99.61
43161;BME280;40968;52.342;5.528;2024-01-15T08:15:07;99880.25;;;-1.32;99.65
43161;BME280;40968;52.342;5.528;2024-01-15T08:17:34;100106.69;;;-0.07;99.94
43161;BME280;40968;52.342;5.528;2024-01-15T08:20:00;100067.06;;;-0.24;99.45
43161;BME280;40968;52.342;5.528;2024-01-15T08:22:27;99901.75;;;-1.22;99.61
43161;BME280;40968;52.342;5.528;2024-01-15T08:24:55;100034.34;;;-0.39;99.64
43161;BME280;40968;52.342;5.528;2024-01-15T08:27:22;99860.50;;;-1.42;99.69
43161;BME280;40968;52.342;5.528;2024-01-15T08:29:48;100007.66;;;-0.52;99.94
43161;BME280;40968;52.342;5.528;2024-01-15T08:32:15;100084.53;;;-0.01;99.99
43161;BME280;40968;52.342;5.528;2024-01-15T08:34:42;100019.50;;;-0.42;99.93
43161;BME280;40968;52.342;5.528;2024-01-15T08:37:08;100041.78;;;-0.28;99.81
43161;BME280;40968;52.342;5.528;2024-01-15T08:39:35;100055.47;;;-0.20;99.77
43161;BME280;40968;52.342;5.528;2024-01-15T08:42:05;100082.56;;;0.04;99.81
43161;BME280;40968;52.342;5.528;2024-01-15T08:44:32;100086.97;;;0.04;99.45
43161;BME280;40968;52.342;5.528;2024-01-15T08:46:58;99776.34;;;-1.85;99.05
43161;BME280;40968;52.342;5.528;2024-01-15T08:49:25;99936.41;;;-0.90;99.61
43161;BME280;40968;52.342;5.528;2024-01-15T08:51:51;100080.25;;;-0.04;99.81
43161;BME280;40968;52.342;5.528;2024-01-15T08:54:18;100064.84;;;-0.13;99.85
43161;BME280;40968;52.342;5.528;2024-01-15T08:56:44;100039.00;;;-0.25;99.92
43161;BME280;40968;52.342;5.528;2024-01-15T08:59:12;100106.06;;;0.09;99.92
43161;BME280;40968;52.342;5.528;2024-01-15T09:01:39;100117.41;;;0.11;100.00
43161;BME280;40968;52.342;5.528;2024-01-15T09:04:05;100101.72;;;0.08;100.00
43161;BME280;40968;52.342;5.528;2024-01-15T09:06:32;100108.09;;;0.02;99.50
43161;BME280;40968;52.342;5.528;2024-01-15T09:08:58;99843.56;;;-1.57;99.16
43161;BME280;40968;52.342;5.528;2024-01-15T09:11:25;100067.84;;;-0.22;99.86
43161;BME280;40968;52.342;5.528;2024-01-15T09:13:52;100030.16;;;-0.45;99.51
43161;BME280;40968;52.342;5.528;2024-01-15T09:16:20;100031.06;;;-0.46;99.49
43161;BME280;40968;52.342;5.528;2024-01-15T09:18:46;99925.59;;;-1.05;99.76
43161;BME280;40968;52.342;5.528;2024-01-15T09:21:13;100106.13;;;0.07;99.66
43161;BME280;40968;52.342;5.528;2024-01-15T09:23:39;100025.50;;;-0.38;99.92
43161;BME280;40968;52.342;5.528;2024-01-15T09:26:07;100040.72;;;-0.24;100.00
43161;BME280;40968;52.342;5.528;2024-01-15T09:28:34;99939.75;;;-0.87;99.68
43161;BME280;40968;52.342;5.528;2024-01-15T09:31:01;100100.72;;;0.10;99.99
43161;BME280;40968;52.342;5.528;2024-01-15T09:33:28;100074.09;;;-0.04;100.00
43161;BME280;40968;52.342;5.528;2024-01-15T09:35:55;99981.97;;;-0.68;100.00
43161;BME280;40968;52.342;5.528;2024-01-15T09:38:22;99986.44;;;-0.49;99.78
43161;BME280;40968;52.342;5.528;2024-01-15T09:40:49;100106.47;;;0.20;99.56
43161;BME280;40968;52.342;5.528;2024-01-15T09:43:18;99975.50;;;-0.60;99.60
43161;BME280;40968;52.342;5.528;2024-01-15T09:45:45;99653.03;;;-2.53;99.42
43161;BME280;40968;52.342;5.528;2024-01-15T09:48:12;100119.41;;;0.26;99.93
43161;BME280;40968;52.342;5.528;2024-01-15T09:50:40;100123.72;;;0.27;99.29
43161;BME280;40968;52.342;5.528;2024-01-15T09:53:07;100112.25;;;0.28;99.28
43161;BME280;40968;52.342;5.528;2024-01-15T09:55:36;100090.50;;;0.23;99.48
43161;BME280;40968;52.342;5.528;2024-01-15T09:58:03;99930.50;;;-0.75;98.89
43161;BME280;40968;52.342;5.528;2024-01-15T10:00:30;100005.00;;;-0.31;99.31
43161;BME280;40968;52.342;5.528;2024-01-15T10:02:57;99770.91;;;-1.58;99.13
43161;BME280;40968;52.342;5.528;2024-01-15T10:05:25;100099.97;;;0.48;99.18
43161;BME280;40968;52.342;5.528;2024-01-15T10:07:54;99981.13;;;-0.27;99.50
43161;BME280;40968;52.342;5.528;2024-01-15T10:10:23;100067.59;;;0.25;99.26
43161;BME280;40968;52.342;5.528;2024-01-15T10:12:49;100018.38;;;0.05;99.33
43161;BME280;40968;52.342;5.528;2024-01-15T10:15:16;99964.19;;;-0.21;99.64
43161;BME280;40968;52.342;5.528;2024-01-15T10:17:43;99839.78;;;-0.87;99.18
43161;BME280;40968;52.342;5.528;2024-01-15T10:20:10;99847.34;;;-0.79;99.11
43161;BME280;40968;52.342;5.528;2024-01-15T10:22:42;100079.78;;;0.68;98.71
43161;BME280;40968;52.342;5.528;2024-01-15T10:25:14;100126.16;;;0.92;98.69
43161;BME280;40968;52.342;5.528;2024-01-15T10:27:41;99871.84;;;-0.56;97.66
43161;BME280;40968;52.342;5.528;2024-01-15T10:30:09;99881.16;;;-0.49;97.46
43161;BME280;40968;52.342;5.528;2024-01-15T10:32:36;100097.41;;;0.86;96.96
43161;BME280;40968;52.342;5.528;2024-01-15T10:35:03;100058.53;;;0.71;96.54
43161;BME280;40968;52.342;5.528;2024-01-15T10:37:32;99935.75;;;-0.13;96.27
43161;BME280;40968;52.342;5.528;2024-01-15T10:40:01;100029.44;;;0.53;95.88
43161;BME280;40968;52.342;5.528;2024-01-15T10:42:30;100119.75;;;1.17;95.81
43161;BME280;40968;52.342;5.528;2024-01-15T10:44:56;100036.56;;;0.51;95.33
43161;BME280;40968;52.342;5.528;2024-01-15T10:47:23;99932.19;;;-0.12;94.11
43161;BME280;40968;52.342;5.528;2024-01-15T10:49:50;100147.63;;;1.04;94.54
43161;BME280;40968;52.342;5.528;2024-01-15T10:52:18;99790.41;;;-1.21;94.72
43161;BME280;40968;52.342;5.528;2024-01-15T10:54:45;99907.81;;;-0.57;94.77
43161;BME280;40968;52.342;5.528;2024-01-15T10:57:13;100133.00;;;0.96;95.12
43161;BME280;40968;52.342;5.528;2024-01-15T10:59:42;100138.78;;;1.05;95.00
43161;BME280;40968;52.342;5.528;2024-01-15T11:02:09;99975.38;;;0.05;95.07
43161;BME280;40968;52.342;5.528;2024-01-15T11:04:36;100152.63;;;1.10;94.65
43161;BME280;40968;52.342;5.528;2024-01-15T11:07:03;100115.66;;;0.91;94.64
43161;BME280;40968;52.342;5.528;2024-01-15T11:09:31;100087.75;;;0.85;94.39
43161;BME280;40968;52.342;5.528;2024-01-15T11:12:07;100021.34;;;0.58;94.76
43161;BME280;40968;52.342;5.528;2024-01-15T11:14:34;100142.00;;;1.30;94.95
43161;BME280;40968;52.342;5.528;2024-01-15T11:17:02;99912.41;;;-0.02;95.07
43161;BME280;40968;52.342;5.528;2024-01-15T11:19:36;99993.78;;;0.44;94.72
43161;BME280;40968;52.342;5.528;2024-01-15T11:22:03;100126.31;;;1.27;94.97
43161;BME280;40968;52.342;5.528;2024-01-15T11:24:35;100127.72;;;1.35;94.89
43161;BME280;40968;52.342;5.528;2024-01-15T11:27:03;100070.75;;;1.11;94.88
43161;BME280;40968;52.342;5.528;2024-01-15T11:29:31;100116.59;;;1.47;94.46
43161;BME280;40968;52.342;5.528;2024-01-15T11:32:02;99847.50;;;-0.03;93.97
43161;BME280;40968;52.342;5.528;2024-01-15T11:34:53;100141.03;;;1.87;93.93
43161;BME280;40968;52.342;5.528;2024-01-15T11:37:20;100147.44;;;2.01;93.52
43161;BME280;40968;52.342;5.528;2024-01-15T11:39:51;100097.19;;;1.65;92.77
43161;BME280;40968;52.342;5.528;2024-01-15T11:42:17;100089.56;;;1.59;91.98
43161;BME280;40968;52.342;5.528;2024-01-15T11:44:45;100068.88;;;1.32;91.55
43161;BME280;40968;52.342;5.528;2024-01-15T11:47:14;99888.56;;;0.02;91.16
43161;BME280;40968;52.342;5.528;2024-01-15T11:49:58;100167.56;;;1.30;91.03
43161;BME280;40968;52.342;5.528;2024-01-15T11:52:26;100094.19;;;0.60;91.30
43161;BME280;40968;52.342;5.528;2024-01-15T11:54:55;100157.16;;;0.87;92.53
43161;BME280;40968;52.342;5.528;2024-01-15T11:57:33;100167.41;;;0.74;93.22
43161;BME280;40968;52.342;5.528;2024-01-15T12:00:03;100147.91;;;0.58;93.85
43161;BME280;40968;52.342;5.528;2024-01-15T12:02:31;100193.19;;;0.88;94.47
43161;BME280;40968;52.342;5.528;2024-01-15T12:04:58;100070.88;;;0.10;94.58
43161;BME280;40968;52.342;5.528;2024-01-15T12:07:25;100196.75;;;0.87;95.01
43161;BME280;40968;52.342;5.528;2024-01-15T12:09:51;100187.34;;;1.01;94.86
43161;BME280;40968;52.342;5.528;2024-01-15T12:12:24;99931.03;;;-0.25;95.47
43161;BME280;40968;52.342;5.528;2024-01-15T12:14:51;100183.25;;;1.33;95.35
43161;BME280;40968;52.342;5.528;2024-01-15T12:17:18;100188.53;;;1.52;94.67
43161;BME280;40968;52.342;5.528;2024-01-15T12:19:46;100175.38;;;1.70;94.14
43161;BME280;40968;52.342;5.528;2024-01-15T12:22:13;100003.34;;;0.85;93.52
43161;BME280;40968;52.342;5.528;2024-01-15T12:24:40;100179.00;;;2.04;92.96
43161;BME280;40968;52.342;5.528;2024-01-15T12:27:07;100060.97;;;1.50;91.67
43161;BME280;40968;52.342;5.528;2024-01-15T12:29:34;100129.78;;;2.01;91.41
43161;BME280;40968;52.342;5.528;2024-01-15T12:32:00;99953.72;;;0.93;90.25
43161;BME280;40968;52.342;5.528;2024-01-15T12:34:29;100146.38;;;2.05;89.69
43161;BME280;40968;52.342;5.528;2024-01-15T12:36:58;100184.28;;;2.04;88.98
43161;BME280;40968;52.342;5.528;2024-01-15T12:39:24;100149.41;;;1.78;89.49
43161;BME280;40968;52.342;5.528;2024-01-15T12:41:51;100018.88;;;0.91;89.01
43161;BME280;40968;52.342;5.528;2024-01-15T12:44:18;100093.06;;;1.23;89.06
43161;BME280;40968;52.342;5.528;2024-01-15T12:46:45;100152.59;;;1.48;88.72
43161;BME280;40968;52.342;5.528;2024-01-15T12:49:12;100141.84;;;1.33;87.70
43161;BME280;40968;52.342;5.528;2024-01-15T12:51:39;100142.00;;;1.30;86.63
43161;BME280;40968;52.342;5.528;2024-01-15T12:54:07;100047.63;;;0.59;86.22
43161;BME280;40968;52.342;5.528;2024-01-15T12:56:34;100016.34;;;0.52;86.13